createdAt,value
2022-10-09T00:01:11.570Z,96.92
2022-10-09T00:03:40.028Z,96.65
2022-10-09T00:06:33.226Z,96.52
2022-10-09T00:09:02.216Z,96.75
2022-10-09T00:11:30.765Z,96.56
2022-10-09T00:13:58.546Z,96.84
2022-10-09T00:16:25.961Z,96.86
2022-10-09T00:18:53.379Z,97.05
2022-10-09T00:21:22.997Z,97.24
2022-10-09T00:23:51.034Z,97.16
2022-10-09T00:26:18.194Z,97.14
2022-10-09T00:28:45.961Z,97.15
2022-10-09T00:31:14.054Z,97.25
2022-10-09T00:33:41.026Z,97.30
2022-10-09T00:36:11.823Z,97.65
2022-10-09T00:38:39.576Z,97.72
2022-10-09T00:41:07.916Z,97.83
2022-10-09T00:43:47.276Z,97.90
2022-10-09T00:46:26.612Z,98.42
2022-10-09T00:49:07.709Z,98.37
2022-10-09T00:51:34.978Z,98.42
2022-10-09T00:54:04.057Z,98.68
2022-10-09T00:56:31.470Z,98.97
2022-10-09T00:58:58.720Z,98.89
2022-10-09T01:01:25.987Z,99.16
2022-10-09T01:03:53.007Z,99.44
2022-10-09T01:06:32.739Z,99.64
2022-10-09T01:09:08.639Z,99.61
2022-10-09T01:11:44.313Z,99.97
2022-10-09T01:14:17.404Z,100.00
2022-10-09T01:17:00.461Z,100.00
2022-10-09T01:20:04.484Z,100.00
2022-10-09T01:23:15.434Z,100.00
2022-10-09T01:25:50.721Z,100.00
2022-10-09T01:28:19.455Z,100.00
2022-10-09T01:30:50.181Z,100.00
2022-10-09T01:33:17.713Z,100.00
2022-10-09T01:35:45.158Z,100.00
2022-10-09T01:38:12.399Z,100.00
2022-10-09T01:40:39.503Z,100.00
2022-10-09T01:43:06.480Z,100.00
2022-10-09T01:45:39.222Z,100.00
2022-10-09T01:48:07.378Z,100.00
2022-10-09T01:50:41.085Z,100.00
2022-10-09T01:53:10.821Z,100.00
2022-10-09T01:55:45.202Z,100.00
2022-10-09T01:58:19.465Z,100.00
2022-10-09T02:00:53.827Z,100.00
2022-10-09T02:03:21.173Z,100.00
2022-10-09T02:05:49.896Z,100.00
2022-10-09T02:08:19.101Z,100.00
2022-10-09T02:10:47.478Z,100.00
2022-10-09T02:13:14.609Z,100.00
2022-10-09T02:15:48.664Z,100.00
2022-10-09T02:18:19.611Z,100.00
2022-10-09T02:20:53.819Z,100.00
2022-10-09T02:23:23.199Z,100.00
2022-10-09T02:25:50.623Z,100.00
2022-10-09T02:28:17.739Z,100.00
2022-10-09T02:30:55.668Z,100.00
2022-10-09T02:33:28.250Z,100.00
2022-10-09T02:35:55.447Z,100.00
2022-10-09T02:38:22.407Z,100.00
2022-10-09T02:40:49.545Z,100.00
2022-10-09T02:43:16.588Z,100.00
2022-10-09T02:45:43.785Z,100.00
2022-10-09T02:48:13.234Z,100.00
2022-10-09T02:50:40.286Z,100.00
2022-10-09T02:53:07.203Z,100.00
2022-10-09T02:55:34.174Z,100.00
2022-10-09T02:58:01.147Z,100.00
2022-10-09T03:00:28.313Z,100.00
2022-10-09T03:02:55.512Z,100.00
2022-10-09T03:05:22.665Z,100.00
2022-10-09T03:07:51.740Z,100.00
2022-10-09T03:10:20.442Z,100.00
2022-10-09T03:12:49.368Z,100.00
2022-10-09T03:15:16.943Z,100.00
2022-10-09T03:17:43.882Z,100.00
2022-10-09T03:20:13.748Z,100.00
2022-10-09T03:22:40.700Z,100.00
2022-10-09T03:25:08.036Z,100.00
2022-10-09T03:27:36.108Z,100.00
2022-10-09T03:30:03.937Z,100.00
2022-10-09T03:32:32.448Z,100.00
2022-10-09T03:34:59.660Z,100.00
2022-10-09T03:37:26.526Z,100.00
2022-10-09T03:39:56.312Z,100.00
2022-10-09T03:42:23.256Z,100.00
2022-10-09T03:44:50.330Z,100.00
2022-10-09T03:47:17.641Z,100.00
2022-10-09T03:49:44.662Z,100.00
2022-10-09T03:52:11.680Z,100.00
2022-10-09T03:54:38.610Z,100.00
2022-10-09T03:57:06.400Z,100.00
2022-10-09T03:59:33.287Z,100.00
2022-10-09T04:02:04.463Z,100.00
2022-10-09T04:04:31.504Z,100.00
2022-10-09T04:06:58.365Z,100.00
2022-10-09T04:09:25.412Z,100.00
2022-10-09T04:11:52.600Z,100.00
2022-10-09T04:14:19.472Z,100.00
2022-10-09T04:16:46.531Z,100.00
2022-10-09T04:19:17.751Z,100.00
2022-10-09T04:21:44.813Z,100.00
2022-10-09T04:24:11.769Z,100.00
2022-10-09T04:26:43.055Z,100.00
2022-10-09T04:29:11.429Z,100.00
2022-10-09T04:31:38.558Z,100.00
2022-10-09T04:34:07.960Z,100.00
2022-10-09T04:36:34.947Z,100.00
2022-10-09T04:39:01.991Z,100.00
2022-10-09T04:41:38.119Z,100.00
2022-10-09T04:44:08.585Z,100.00
2022-10-09T04:46:38.856Z,100.00
2022-10-09T04:49:05.811Z,100.00
2022-10-09T04:51:32.998Z,100.00
2022-10-09T04:54:00.902Z,100.00
2022-10-09T04:56:28.135Z,100.00
2022-10-09T04:58:55.083Z,100.00
2022-10-09T05:01:24.359Z,99.56
2022-10-09T05:03:53.114Z,99.36
2022-10-09T05:06:23.760Z,99.00
2022-10-09T05:08:51.362Z,98.63
2022-10-09T05:11:23.655Z,98.24
2022-10-09T05:13:53.413Z,97.97
2022-10-09T05:16:26.677Z,97.22
2022-10-09T05:18:57.903Z,96.96
2022-10-09T05:21:25.992Z,96.15
2022-10-09T05:23:56.352Z,95.64
2022-10-09T05:26:25.121Z,95.14
2022-10-09T05:28:52.453Z,94.49
2022-10-09T05:31:27.356Z,93.92
2022-10-09T05:33:56.302Z,92.75
2022-10-09T05:36:23.234Z,92.25
2022-10-09T05:38:50.251Z,91.36
2022-10-09T05:41:19.239Z,90.77
2022-10-09T05:43:47.779Z,90.14
2022-10-09T05:46:20.198Z,88.65
2022-10-09T05:48:52.640Z,87.93
2022-10-09T05:51:30.606Z,87.16
2022-10-09T05:53:58.088Z,86.02
2022-10-09T05:56:27.436Z,84.54
2022-10-09T05:59:05.176Z,84.11
2022-10-09T06:01:34.766Z,83.72
2022-10-09T06:04:02.734Z,82.75
2022-10-09T06:06:32.594Z,81.98
2022-10-09T06:09:07.193Z,81.51
2022-10-09T06:11:36.584Z,80.94
2022-10-09T06:14:06.151Z,81.04
2022-10-09T06:16:38.945Z,81.00
2022-10-09T06:19:07.832Z,81.22
2022-10-09T06:21:34.957Z,80.92
2022-10-09T06:24:03.046Z,80.90
2022-10-09T06:26:31.313Z,80.93
2022-10-09T06:29:00.745Z,80.77
2022-10-09T06:31:30.236Z,80.42
2022-10-09T06:34:00.031Z,79.57
2022-10-09T06:36:29.607Z,79.00
2022-10-09T06:38:58.050Z,78.42
2022-10-09T06:41:26.621Z,77.29
2022-10-09T06:43:58.470Z,76.29
2022-10-09T06:49:32.804Z,74.22
2022-10-09T06:51:59.806Z,74.57
2022-10-09T06:54:26.715Z,73.94
2022-10-09T06:56:55.376Z,73.36
2022-10-09T06:59:22.449Z,72.30
2022-10-09T07:01:49.425Z,71.68
2022-10-09T07:04:23.767Z,71.54
2022-10-09T07:06:51.007Z,70.63
2022-10-09T07:09:18.036Z,70.27
2022-10-09T07:11:46.974Z,69.82
2022-10-09T07:14:16.104Z,70.21
2022-10-09T07:16:47.581Z,69.82
2022-10-09T07:19:17.685Z,69.33
2022-10-09T07:21:47.218Z,68.79
2022-10-09T07:24:15.275Z,67.61
2022-10-09T07:26:44.774Z,66.79
2022-10-09T07:29:15.113Z,65.76
2022-10-09T07:31:42.031Z,64.98
2022-10-09T07:34:09.015Z,64.36
2022-10-09T07:36:40.601Z,64.07
2022-10-09T07:39:07.653Z,63.00
2022-10-09T07:41:34.864Z,62.24
2022-10-09T07:44:01.776Z,61.46
2022-10-09T07:46:33.243Z,61.17
2022-10-09T07:49:02.063Z,59.86
2022-10-09T07:51:30.152Z,58.82
2022-10-09T07:53:58.005Z,58.30
2022-10-09T07:56:29.166Z,57.21
2022-10-09T07:59:13.316Z,56.27
2022-10-09T08:01:42.130Z,55.47
2022-10-09T08:04:10.200Z,54.09
2022-10-09T08:06:37.247Z,53.85
2022-10-09T08:09:05.892Z,54.52
2022-10-09T08:14:19.308Z,52.15
2022-10-09T08:16:47.123Z,51.84
2022-10-09T08:19:14.001Z,50.36
2022-10-09T08:21:43.713Z,49.34
2022-10-09T08:24:13.245Z,50.31
2022-10-09T08:26:40.656Z,50.06
2022-10-09T08:29:09.776Z,49.49
2022-10-09T08:31:37.703Z,48.95
2022-10-09T08:34:04.745Z,47.86
2022-10-09T08:36:34.198Z,48.22
2022-10-09T08:39:01.359Z,47.87
2022-10-09T08:41:58.503Z,46.49
2022-10-09T08:44:32.123Z,46.31
2022-10-09T08:47:08.255Z,46.89
2022-10-09T08:49:57.024Z,44.91
2022-10-09T08:52:41.777Z,44.82
2022-10-09T08:55:31.235Z,44.26
2022-10-09T08:58:04.544Z,44.12
2022-10-09T09:00:46.350Z,43.39
2022-10-09T09:03:48.752Z,43.13
2022-10-09T09:07:19.129Z,41.66
2022-10-09T09:15:53.285Z,41.38
2022-10-09T09:18:51.065Z,40.44
2022-10-09T09:21:38.862Z,41.00
2022-10-09T09:24:14.130Z,40.86
2022-10-09T09:26:51.903Z,39.48
2022-10-09T09:29:23.344Z,40.00
2022-10-09T09:31:54.105Z,41.05
2022-10-09T09:34:41.404Z,39.22
2022-10-09T09:37:11.656Z,38.68
2022-10-09T09:42:27.934Z,37.73
2022-10-09T09:45:04.531Z,37.50
2022-10-09T09:47:41.364Z,38.46
2022-10-09T09:50:23.312Z,37.35
2022-10-09T09:52:56.258Z,37.39
2022-10-09T09:55:25.667Z,38.29
2022-10-09T09:57:52.840Z,37.63
2022-10-09T10:00:30.237Z,38.73
2022-10-09T10:03:11.463Z,38.06
2022-10-09T10:05:39.480Z,37.23
2022-10-09T10:08:25.826Z,36.78
2022-10-09T10:10:55.360Z,37.29
2022-10-09T10:13:31.082Z,36.26
2022-10-09T10:15:58.524Z,34.99
2022-10-09T10:18:28.852Z,35.05
2022-10-09T10:20:57.854Z,35.10
2022-10-09T10:23:40.990Z,33.91
2022-10-09T10:26:25.594Z,32.75
2022-10-09T10:29:17.310Z,33.40
2022-10-09T10:31:51.531Z,32.91
2022-10-09T10:34:33.173Z,33.31
2022-10-09T10:37:05.545Z,34.70
2022-10-09T10:40:16.619Z,35.43
2022-10-09T10:42:57.518Z,36.06
2022-10-09T10:45:51.474Z,36.54
2022-10-09T10:48:39.328Z,37.11
2022-10-09T10:51:31.343Z,36.68
2022-10-09T10:54:16.512Z,37.39
2022-10-09T10:56:47.966Z,37.12
2022-10-09T10:59:41.575Z,35.80
2022-10-09T11:02:33.118Z,35.18
2022-10-09T11:05:47.368Z,34.15
2022-10-09T11:08:31.329Z,36.16
2022-10-09T11:11:25.743Z,35.74
2022-10-09T11:14:08.923Z,35.44
2022-10-09T11:16:53.146Z,35.21
2022-10-09T11:19:26.289Z,36.25
2022-10-09T11:22:03.447Z,36.59
2022-10-09T11:24:58.512Z,35.84
2022-10-09T11:28:11.617Z,36.09
2022-10-09T11:30:46.442Z,36.93
2022-10-09T11:33:28.902Z,38.03
2022-10-09T11:36:23.330Z,38.41
2022-10-09T11:39:12.785Z,38.76
2022-10-09T11:41:40.493Z,39.21
2022-10-09T11:44:26.198Z,39.09
2022-10-09T11:47:22.064Z,39.04
2022-10-09T11:49:57.928Z,39.38
2022-10-09T11:52:27.792Z,39.61
2022-10-09T11:55:00.570Z,39.83
2022-10-09T11:57:29.233Z,39.93
2022-10-09T12:00:10.065Z,39.27
2022-10-09T12:02:37.990Z,39.59
2022-10-09T12:05:30.056Z,40.41
2022-10-09T12:08:19.234Z,40.79
2022-10-09T12:11:12.712Z,41.44
2022-10-09T12:13:41.030Z,42.19
2022-10-09T12:19:37.189Z,42.70
2022-10-09T12:22:07.958Z,43.09
2022-10-09T12:24:44.828Z,43.34
2022-10-09T12:27:31.505Z,43.84
2022-10-09T12:30:14.286Z,44.18
2022-10-09T12:33:08.740Z,44.38
2022-10-09T12:35:38.274Z,44.89
2022-10-09T12:38:27.255Z,45.07
2022-10-09T12:40:57.240Z,45.22
2022-10-09T12:49:23.288Z,46.34
2022-10-09T12:51:56.379Z,46.74
2022-10-09T12:54:25.356Z,46.44
2022-10-09T12:56:54.750Z,47.15
2022-10-09T12:59:24.990Z,47.16
2022-10-09T13:01:56.285Z,47.32
2022-10-09T13:04:34.151Z,47.56
2022-10-09T13:07:09.073Z,47.78
2022-10-09T13:09:39.705Z,48.10
2022-10-09T13:12:10.549Z,48.13
2022-10-09T13:15:00.553Z,48.23
2022-10-09T13:17:40.367Z,48.30
2022-10-09T13:20:30.286Z,48.40
2022-10-09T13:23:00.394Z,51.18
2022-10-09T13:25:33.010Z,55.59
2022-10-09T13:28:00.171Z,58.10
2022-10-09T13:30:29.003Z,59.42
2022-10-09T13:32:56.495Z,60.61
2022-10-09T13:35:23.393Z,61.59
2022-10-09T13:37:50.634Z,63.09
2022-10-09T13:40:20.933Z,63.64
2022-10-09T13:42:56.992Z,64.08
2022-10-09T13:45:24.132Z,65.23
2022-10-09T13:47:51.872Z,65.33
2022-10-09T13:50:22.042Z,66.52
2022-10-09T13:52:49.242Z,67.43
2022-10-09T13:55:16.327Z,68.04
2022-10-09T13:57:44.742Z,68.55
2022-10-09T14:00:13.874Z,69.34
2022-10-09T14:02:45.201Z,69.95
2022-10-09T14:05:14.759Z,69.61
2022-10-09T14:07:41.979Z,69.64
2022-10-09T14:10:09.543Z,70.19
2022-10-09T14:12:36.835Z,70.34
2022-10-09T14:15:11.499Z,70.68
2022-10-09T14:17:38.587Z,71.42
2022-10-09T14:20:06.765Z,72.06
2022-10-09T14:22:33.691Z,72.88
2022-10-09T14:25:00.735Z,73.38
2022-10-09T14:27:27.668Z,73.63
2022-10-09T14:29:57.298Z,73.82
2022-10-09T14:32:24.509Z,74.53
2022-10-09T14:34:56.477Z,74.72
2022-10-09T14:37:40.441Z,74.82
2022-10-09T14:40:10.468Z,75.13
2022-10-09T14:42:38.929Z,75.91
2022-10-09T14:45:12.349Z,76.74
2022-10-09T14:47:40.775Z,77.43
2022-10-09T14:50:12.326Z,78.52
2022-10-09T14:52:39.689Z,79.75
2022-10-09T14:55:09.936Z,81.12
2022-10-09T14:57:38.419Z,81.86
2022-10-09T15:00:10.157Z,82.41
2022-10-09T15:02:37.501Z,83.09
2022-10-09T15:05:05.833Z,83.66
2022-10-09T15:07:33.862Z,84.06
2022-10-09T15:10:00.807Z,84.67
2022-10-09T15:12:27.711Z,84.74
2022-10-09T15:14:54.725Z,84.81
2022-10-09T15:17:22.599Z,85.76
2022-10-09T15:19:49.773Z,86.21
2022-10-09T15:22:20.380Z,86.33
2022-10-09T15:24:48.022Z,86.57
2022-10-09T15:27:14.992Z,86.85
2022-10-09T15:29:41.942Z,87.11
2022-10-09T15:32:11.039Z,87.54
2022-10-09T15:34:41.118Z,87.79
2022-10-09T15:37:11.950Z,87.90
2022-10-09T15:39:39.529Z,88.39
2022-10-09T15:42:09.006Z,88.90
2022-10-09T15:44:41.926Z,89.41
2022-10-09T15:47:08.980Z,90.02
2022-10-09T15:49:40.907Z,90.48
2022-10-09T15:52:08.140Z,90.74
2022-10-09T15:54:35.542Z,90.65
2022-10-09T15:57:02.620Z,90.97
2022-10-09T15:59:31.768Z,91.09
2022-10-09T16:01:58.895Z,91.34
2022-10-09T16:04:28.607Z,91.51
2022-10-09T16:06:55.684Z,91.96
2022-10-09T16:09:24.860Z,92.18
2022-10-09T16:11:51.695Z,92.56
2022-10-09T16:14:20.063Z,92.81
2022-10-09T16:16:52.707Z,92.58
2022-10-09T16:19:39.168Z,92.59
2022-10-09T16:22:09.232Z,92.69
2022-10-09T16:24:41.327Z,93.07
2022-10-09T16:27:11.828Z,93.43
2022-10-09T16:29:40.090Z,93.66
2022-10-09T16:32:07.017Z,93.79
2022-10-09T16:34:35.740Z,94.21
2022-10-09T16:37:02.751Z,93.96
2022-10-09T16:39:32.907Z,93.87
2022-10-09T16:42:03.837Z,93.92
2022-10-09T16:44:31.597Z,93.98
2022-10-09T16:47:02.205Z,93.89
2022-10-09T16:49:29.283Z,94.01
2022-10-09T16:51:56.335Z,93.58
2022-10-09T16:54:26.159Z,93.27
2022-10-09T16:56:53.155Z,92.99
2022-10-09T17:02:09.223Z,92.97
2022-10-09T17:04:48.105Z,92.88
2022-10-09T17:07:20.554Z,92.70
2022-10-09T17:10:00.430Z,92.38
2022-10-09T17:12:28.878Z,92.54
2022-10-09T17:15:16.423Z,92.83
2022-10-09T17:17:43.741Z,92.88
2022-10-09T17:20:11.008Z,92.97
2022-10-09T17:22:40.574Z,93.17
2022-10-09T17:25:16.415Z,93.43
2022-10-09T17:27:54.506Z,93.78
2022-10-09T17:30:25.843Z,93.96
2022-10-09T17:32:57.065Z,93.93
2022-10-09T17:38:06.355Z,94.47
2022-10-09T17:40:37.944Z,94.50
2022-10-09T17:43:07.312Z,94.66
2022-10-09T17:45:44.256Z,94.42
2022-10-09T17:48:12.020Z,95.07
2022-10-09T17:50:40.458Z,95.10
2022-10-09T17:53:12.356Z,94.75
2022-10-09T17:55:39.526Z,94.50
2022-10-09T17:58:08.747Z,94.66
2022-10-09T18:00:39.367Z,94.66
2022-10-09T18:03:07.209Z,94.73
2022-10-09T18:05:47.182Z,94.94
2022-10-09T18:08:17.397Z,94.99
2022-10-09T18:10:44.708Z,95.32
2022-10-09T18:13:11.763Z,95.38
2022-10-09T18:15:41.279Z,95.51
2022-10-09T18:18:09.986Z,95.53
2022-10-09T18:20:39.300Z,95.56
2022-10-09T18:25:57.434Z,95.48
2022-10-09T18:30:56.314Z,95.60
2022-10-09T18:33:23.820Z,95.40
2022-10-09T18:35:50.936Z,95.63
2022-10-09T18:38:17.844Z,95.62
2022-10-09T18:40:49.172Z,95.77
2022-10-09T18:43:24.775Z,96.11
2022-10-09T18:45:51.947Z,96.17
2022-10-09T18:48:23.315Z,95.95
2022-10-09T18:51:19.205Z,95.69
2022-10-09T18:53:51.963Z,95.51
2022-10-09T18:56:24.289Z,95.34
2022-10-09T18:58:52.406Z,94.90
2022-10-09T19:01:19.880Z,94.95
2022-10-09T19:03:49.944Z,95.13
2022-10-09T19:06:18.608Z,94.90
2022-10-09T19:08:46.360Z,94.73
2022-10-09T19:11:14.761Z,94.50
2022-10-09T19:16:37.753Z,94.35
2022-10-09T19:19:06.300Z,94.02
2022-10-09T19:21:33.635Z,94.40
2022-10-09T19:24:06.372Z,94.36
2022-10-09T19:26:39.821Z,94.66
2022-10-09T19:29:10.930Z,94.66
2022-10-09T19:31:42.390Z,94.54
2022-10-09T19:34:14.461Z,94.74
2022-10-09T19:36:43.264Z,94.72
2022-10-09T19:39:11.254Z,94.88
2022-10-09T19:41:39.051Z,95.00
2022-10-09T19:44:06.021Z,95.04
2022-10-09T19:46:32.891Z,95.22
2022-10-09T19:49:02.714Z,94.98
2022-10-09T19:51:29.972Z,94.88
2022-10-09T19:53:58.917Z,94.84
2022-10-09T19:56:51.738Z,94.84
2022-10-09T19:59:18.818Z,94.76
2022-10-09T20:01:56.660Z,94.96
2022-10-09T20:04:29.687Z,94.86
2022-10-09T20:07:01.942Z,94.92
2022-10-09T20:09:29.047Z,94.97
2022-10-09T20:11:56.056Z,94.87
2022-10-09T20:14:22.952Z,94.89
2022-10-09T20:16:49.968Z,94.81
2022-10-09T20:19:16.936Z,95.06
2022-10-09T20:21:43.891Z,95.58
2022-10-09T20:24:10.784Z,95.52
2022-10-09T20:26:42.211Z,95.41
2022-10-09T20:29:10.035Z,95.56
2022-10-09T20:31:37.056Z,95.40
2022-10-09T20:34:04.082Z,95.61
2022-10-09T20:36:35.493Z,95.87
2022-10-09T20:39:13.202Z,96.17
2022-10-09T20:41:41.684Z,96.25
2022-10-09T20:44:09.027Z,96.12
2022-10-09T20:46:38.095Z,96.23
2022-10-09T20:49:07.189Z,96.11
2022-10-09T20:51:38.404Z,96.23
2022-10-09T20:54:06.910Z,96.64
2022-10-09T20:56:34.407Z,96.95
2022-10-09T20:59:01.570Z,96.59
2022-10-09T21:01:29.093Z,96.65
2022-10-09T21:03:57.216Z,96.49
2022-10-09T21:06:24.188Z,96.39
2022-10-09T21:08:51.140Z,96.19
2022-10-09T21:11:19.093Z,95.98
2022-10-09T21:13:46.339Z,95.60
2022-10-09T21:16:15.667Z,95.50
2022-10-09T21:18:42.789Z,95.21
2022-10-09T21:21:12.641Z,95.08
2022-10-09T21:23:40.403Z,94.73
2022-10-09T21:26:12.417Z,94.68
2022-10-09T21:28:39.838Z,94.56
2022-10-09T21:31:11.941Z,94.22
2022-10-09T21:33:38.938Z,93.81
2022-10-09T21:36:30.573Z,93.25
2022-10-09T21:38:58.295Z,93.09
2022-10-09T21:41:25.354Z,93.07
2022-10-09T21:43:52.396Z,92.93
2022-10-09T21:46:24.643Z,92.71
2022-10-09T21:48:51.631Z,92.85
2022-10-09T21:51:18.740Z,92.50
2022-10-09T21:53:45.813Z,92.51
2022-10-09T21:56:12.828Z,92.68
2022-10-09T21:58:41.430Z,92.42
2022-10-09T22:01:17.212Z,92.50
2022-10-09T22:03:47.488Z,92.46
2022-10-09T22:06:19.224Z,92.90
2022-10-09T22:08:48.074Z,93.11
2022-10-09T22:11:15.707Z,93.09
2022-10-09T22:13:42.725Z,92.83
2022-10-09T22:16:12.354Z,92.92
2022-10-09T22:18:39.279Z,93.09
2022-10-09T22:21:08.724Z,93.42
2022-10-09T22:23:36.378Z,93.88
2022-10-09T22:26:06.413Z,94.24
2022-10-09T22:28:34.151Z,94.20
2022-10-09T22:31:08.482Z,94.03
2022-10-09T22:33:36.548Z,94.22
2022-10-09T22:36:10.424Z,94.18
2022-10-09T22:38:40.593Z,93.89
2022-10-09T22:41:11.772Z,94.00
2022-10-09T22:43:39.952Z,93.99
2022-10-09T22:46:11.660Z,93.88
2022-10-09T22:48:39.258Z,93.54
2022-10-09T22:51:08.094Z,93.57
2022-10-09T22:53:35.715Z,93.53
2022-10-09T22:56:07.620Z,93.90
2022-10-09T22:58:34.795Z,92.92
2022-10-09T23:01:08.688Z,92.78
2022-10-09T23:03:36.526Z,93.00
2022-10-09T23:06:07.966Z,92.85
2022-10-09T23:08:34.991Z,92.62
2022-10-09T23:11:01.850Z,92.52
2022-10-09T23:13:28.901Z,92.49
2022-10-09T23:15:55.851Z,92.87
2022-10-09T23:18:22.714Z,92.93
2022-10-09T23:20:49.633Z,93.25
2022-10-09T23:23:16.743Z,93.54
2022-10-09T23:25:43.848Z,93.23
2022-10-09T23:28:13.824Z,92.85
2022-10-09T23:30:42.846Z,93.18
2022-10-09T23:33:09.735Z,92.70
2022-10-09T23:35:41.056Z,92.75
2022-10-09T23:38:08.290Z,92.61
2022-10-09T23:40:35.281Z,92.59
2022-10-09T23:43:02.265Z,92.38
2022-10-09T23:45:29.252Z,91.69
2022-10-09T23:47:56.207Z,91.68
2022-10-09T23:50:23.135Z,91.90
2022-10-09T23:52:50.426Z,91.81
2022-10-09T23:55:17.523Z,92.02
2022-10-09T23:57:44.349Z,92.25
